Time;durP1;ratioP1;P1;durP2;ratioP2;P2;SDS_P1;SDS_P2;PMS_P1;PMS_P2;Temp;Humidity;BMP_temperature;BMP_pressure;BME280_temperature;BME280_humidity;BME280_pressure;Samples;Min_cycle;Max_cycle;Signal;HPM_P1;HPM_P2
2023/08/22 00:03:36;;;;;;;2.20;1.90;;;;;;;27.27;52.42;100422.75;10371277;28;96691;-81
2023/08/22 00:08:39;;;;;;;2.80;2.00;;;;;;;27.24;52.80;100415.00;10372256;28;96811;-81
2023/08/22 00:13:43;;;;;;;2.60;2.30;;;;;;;27.00;53.51;100402.19;10371795;28;96799;-81
2023/08/22 00:18:47;;;;;;;2.67;2.03;;;;;;;26.91;53.57;100402.31;10413787;27;96882;-80
2023/08/22 00:23:51;;;;;;;2.88;2.08;;;;;;;26.79;53.85;100399.03;10453678;27;97131;-81
2023/08/22 00:28:54;;;;;;;2.95;1.80;;;;;;;26.91;53.63;100395.06;10409188;27;96976;-81
2023/08/22 00:34:01;;;;;;;2.33;1.80;;;;;;;26.88;53.42;100395.38;10370886;28;96627;-81
2023/08/22 00:39:04;;;;;;;3.05;1.80;;;;;;;27.07;53.05;100391.63;10370497;28;96784;-81
2023/08/22 00:44:07;;;;;;;2.17;1.70;;;;;;;26.97;53.44;100378.19;10403824;28;97149;-81
2023/08/22 00:49:12;;;;;;;1.60;1.50;;;;;;;26.83;53.64;100375.25;10370194;28;97100;-81
2023/08/22 00:54:16;;;;;;;2.42;1.85;;;;;;;26.59;54.68;100372.44;10370723;28;97820;-80
2023/08/22 00:59:19;;;;;;;;;;;;;;;26.36;55.54;100357.72;10371344;28;97198;-80
2023/08/22 01:04:25;;;;;;;2.97;2.33;;;;;;;26.26;56.08;100360.56;10371037;28;97154;-81
2023/08/22 01:09:32;;;;;;;3.08;2.50;;;;;;;26.15;56.39;100354.53;10369644;28;97222;-80
2023/08/22 01:14:42;;;;;;;2.15;1.95;;;;;;;26.05;57.50;100351.09;10374187;28;97718;-80
2023/08/22 01:19:47;;;;;;;2.65;1.98;;;;;;;25.86;57.71;100347.59;10384627;28;96916;-80
2023/08/22 01:24:52;;;;;;;2.60;2.15;;;;;;;25.81;58.38;100338.28;10376681;28;97120;-80
2023/08/22 01:30:04;;;;;;;3.45;2.05;;;;;;;25.92;57.06;100352.34;10376482;28;96636;-80
2023/08/22 01:35:12;;;;;;;2.60;1.92;;;;;;;25.97;57.46;100349.16;10376919;28;97324;-81
2023/08/22 01:40:36;;;;;;;2.42;2.20;;;;;;;25.87;57.95;100348.41;10375109;28;97050;-80
2023/08/22 01:45:40;;;;;;;2.22;1.70;;;;;;;25.83;58.26;100344.38;10376273;28;97201;-80
2023/08/22 01:50:43;;;;;;;3.20;2.03;;;;;;;25.81;58.45;100336.41;10376285;28;97038;-80
2023/08/22 01:55:48;;;;;;;2.33;1.95;;;;;;;25.74;58.68;100335.31;10376049;28;96675;-80
2023/08/22 02:00:51;;;;;;;3.47;2.10;;;;;;;25.71;58.72;100334.81;10375601;28;97037;-80
2023/08/22 02:05:55;;;;;;;2.40;1.90;;;;;;;25.60;59.43;100335.00;10374477;28;97247;-81
2023/08/22 02:10:59;;;;;;;2.80;2.17;;;;;;;25.58;59.25;100323.53;10375584;28;96637;-81
2023/08/22 02:16:03;;;;;;;3.00;2.13;;;;;;;25.61;58.58;100323.22;10374880;28;96788;-80
2023/08/22 02:21:06;;;;;;;2.22;2.03;;;;;;;25.62;57.97;100319.53;10457244;27;96611;-81
2023/08/22 02:26:11;;;;;;;2.37;1.97;;;;;;;25.60;57.81;100319.69;10441386;27;96912;-81
2023/08/22 02:31:14;;;;;;;2.83;2.10;;;;;;;25.52;58.18;100316.91;10374158;28;96900;-81
2023/08/22 02:36:35;;;;;;;2.45;2.13;;;;;;;25.47;58.31;100308.44;10370274;28;97151;-80
2023/08/22 02:41:39;;;;;;;2.50;2.00;;;;;;;25.51;58.09;100311.66;10374919;28;96825;-80
2023/08/22 02:46:43;;;;;;;3.85;2.10;;;;;;;25.49;57.91;100309.13;10374183;28;96766;-80
2023/08/22 02:51:46;;;;;;;2.87;1.90;;;;;;;25.58;57.50;100310.91;10374021;28;96921;-80
2023/08/22 02:56:51;;;;;;;2.50;2.07;;;;;;;25.54;57.12;100298.72;10372647;28;96727;-80
2023/08/22 03:01:54;;;;;;;4.32;1.90;;;;;;;25.43;57.66;100296.25;10374516;28;96789;-80
2023/08/22 03:06:57;;;;;;;2.50;1.90;;;;;;;25.20;59.13;100295.03;10373582;28;96840;-80
2023/08/22 03:12:19;;;;;;;2.30;1.98;;;;;;;25.06;60.57;100300.94;10367205;28;96990;-80
2023/08/22 03:17:22;;;;;;;3.33;1.90;;;;;;;24.98;60.63;100303.53;10373042;28;96770;-80
2023/08/22 03:22:26;;;;;;;3.30;1.90;;;;;;;24.91;60.63;100310.50;10373362;28;97020;-80
2023/08/22 03:27:30;;;;;;;2.00;1.70;;;;;;;24.81;60.78;100305.16;10372688;28;97374;-80
2023/08/22 03:32:34;;;;;;;2.25;1.80;;;;;;;24.79;60.84;100309.00;10373663;28;97084;-80
2023/08/22 03:37:37;;;;;;;3.83;1.70;;;;;;;24.81;60.38;100313.22;10372105;28;96686;-80
2023/08/22 03:42:44;;;;;;;3.45;2.05;;;;;;;24.84;59.82;100320.16;10396665;28;96755;-79
2023/08/22 03:47:47;;;;;;;2.33;1.60;;;;;;;24.88;59.66;100313.47;10412209;28;96674;-80
2023/08/22 03:52:50;;;;;;;3.13;2.47;;;;;;;24.81;59.97;100315.06;10391717;28;96782;-80
2023/08/22 03:57:55;;;;;;;2.63;2.17;;;;;;;24.62;61.56;100321.38;10371252;28;96917;-80
2023/08/22 04:02:59;;;;;;;2.35;1.92;;;;;;;24.65;60.89;100317.56;10371567;28;97338;-80
2023/08/22 04:08:03;;;;;;;2.42;1.60;;;;;;;24.78;60.13;100327.00;10371998;28;96776;-80
2023/08/22 04:13:07;;;;;;;2.47;1.83;;;;;;;24.69;59.84;100322.50;10371520;28;96856;-80
2023/08/22 04:18:11;;;;;;;2.30;1.73;;;;;;;24.69;59.85;100316.25;10387749;28;97881;-80
2023/08/22 04:23:14;;;;;;;2.00;1.77;;;;;;;24.56;61.01;100313.06;10413834;28;96956;-79
2023/08/22 04:28:20;;;;;;;1.73;1.60;;;;;;;24.35;61.90;100317.81;10411845;28;96725;-81
2023/08/22 04:33:24;;;;;;;3.97;1.90;;;;;;;24.37;61.69;100319.38;10412703;28;97313;-80
2023/08/22 04:38:28;;;;;;;2.07;1.80;;;;;;;24.38;61.31;100314.81;10411621;28;96648;-80
2023/08/22 04:43:32;;;;;;;2.23;2.00;;;;;;;24.83;58.77;100310.38;10411739;28;96777;-79
2023/08/22 04:48:35;;;;;;;2.35;1.80;;;;;;;24.49;60.64;100306.59;10415705;27;96874;-79
2023/08/22 04:53:39;;;;;;;2.50;1.80;;;;;;;24.48;60.73;100305.72;10419740;28;97671;-80
2023/08/22 04:58:44;;;;;;;3.22;1.95;;;;;;;24.74;59.32;100290.59;10417792;28;96788;-80
2023/08/22 05:04:05;;;;;;;2.75;1.90;;;;;;;24.71;59.42;100296.28;10412950;28;97399;-80
2023/08/22 05:09:09;;;;;;;2.13;1.73;;;;;;;25.00;58.09;100296.13;10418713;28;96726;-79
2023/08/22 05:14:14;;;;;;;5.20;2.10;;;;;;;25.03;57.55;100295.00;10419942;28;96697;-80
2023/08/22 05:19:17;;;;;;;3.38;2.05;;;;;;;24.81;59.10;100296.22;10410161;28;97501;-80
2023/08/22 05:24:21;;;;;;;2.83;2.00;;;;;;;25.00;58.02;100287.25;10418393;27;97191;-79
2023/08/22 05:29:25;;;;;;;2.93;1.53;;;;;;;24.67;59.68;100294.06;10417414;28;96702;-80
2023/08/22 05:34:29;;;;;;;2.50;1.70;;;;;;;24.68;59.57;100287.66;10390759;28;96606;-80
2023/08/22 05:39:32;;;;;;;2.97;2.03;;;;;;;24.57;60.08;100291.38;10376425;28;96895;-79
2023/08/22 05:44:36;;;;;;;3.67;2.20;;;;;;;24.46;60.33;100299.63;10376257;28;96889;-80
2023/08/22 05:49:43;;;;;;;2.20;1.67;;;;;;;24.47;60.30;100298.66;10376443;28;97337;-80
2023/08/22 05:54:47;;;;;;;2.25;1.90;;;;;;;24.46;60.29;100299.63;10375841;28;96802;-79
2023/08/22 05:59:51;;;;;;;2.67;1.93;;;;;;;24.53;59.98;100302.63;10375036;28;97023;-79
2023/08/22 06:04:55;;;;;;;2.35;2.00;;;;;;;24.24;61.49;100299.97;10376396;28;96687;-80
2023/08/22 06:10:16;;;;;;;2.58;2.03;;;;;;;24.45;60.56;100305.16;10373089;28;96853;-80
2023/08/22 06:15:21;;;;;;;2.33;1.80;;;;;;;24.89;58.23;100299.03;10376365;28;97866;-80
2023/08/22 06:20:24;;;;;;;2.70;2.00;;;;;;;25.21;57.09;100296.72;10414806;28;96821;-79
2023/08/22 06:25:28;;;;;;;3.38;2.00;;;;;;;25.49;55.76;100302.88;10415673;28;96575;-80
2023/08/22 06:30:33;;;;;;;2.67;1.73;;;;;;;25.39;56.84;100312.91;10416138;28;96719;-80
2023/08/22 06:35:36;;;;;;;2.95;1.90;;;;;;;25.79;54.46;100319.56;10416374;28;96606;-79
2023/08/22 06:40:40;;;;;;;2.47;1.87;;;;;;;26.07;54.03;100320.28;10415379;28;97784;-80
2023/08/22 06:45:44;;;;;;;2.80;1.70;;;;;;;26.33;52.73;100323.84;10415806;28;97769;-80
2023/08/22 06:50:49;;;;;;;3.10;2.20;;;;;;;26.52;52.71;100328.19;10415432;28;97043;-80
2023/08/22 06:55:55;;;;;;;2.22;1.95;;;;;;;26.68;52.88;100329.09;10416496;28;97544;-80
2023/08/22 07:01:17;;;;;;;3.20;1.80;;;;;;;27.15;51.74;100339.47;10375174;28;96746;-80
2023/08/22 07:06:20;;;;;;;2.25;1.70;;;;;;;27.36;49.56;100338.00;10373401;28;96805;-80
2023/08/22 07:11:24;;;;;;;2.17;1.80;;;;;;;27.70;49.50;100338.75;10371491;28;96707;-80
2023/08/22 07:16:28;;;;;;;2.88;1.70;;;;;;;28.13;48.24;100334.88;10384182;27;96634;-80
2023/08/22 07:21:32;;;;;;;2.53;1.70;;;;;;;28.21;47.48;100339.41;10414876;28;96685;-80
2023/08/22 07:26:35;;;;;;;3.00;1.98;;;;;;;28.70;47.65;100332.94;10414673;28;97094;-81
2023/08/22 07:31:59;;;;;;;2.63;2.10;;;;;;;28.72;47.62;100334.44;10411811;28;96857;-80
2023/08/22 07:37:04;;;;;;;2.17;1.98;;;;;;;29.60;45.50;100332.34;10414273;28;97287;-80
2023/08/22 07:42:07;;;;;;;2.42;2.00;;;;;;;29.73;44.85;100336.13;10414216;28;96705;-81
2023/08/22 07:47:12;;;;;;;2.30;2.10;;;;;;;29.57;43.30;100333.53;10414454;28;96794;-81
2023/08/22 07:52:16;;;;;;;3.13;2.08;;;;;;;29.83;43.28;100330.50;10412823;28;97432;-80
2023/08/22 07:57:19;;;;;;;2.53;2.10;;;;;;;30.47;42.86;100327.19;10413442;28;97778;-80
2023/08/22 08:02:41;;;;;;;2.92;2.00;;;;;;;30.85;41.92;100334.25;10405842;28;97138;-81
2023/08/22 08:07:46;;;;;;;3.25;2.08;;;;;;;30.93;40.19;100326.00;10412336;28;96812;-81
2023/08/22 08:12:50;;;;;;;2.25;1.90;;;;;;;31.60;40.55;100321.16;10413126;28;97502;-81
2023/08/22 08:17:55;;;;;;;2.20;2.00;;;;;;;32.11;39.43;100310.97;10412336;28;98237;-81
2023/08/22 08:22:59;;;;;;;2.70;2.30;;;;;;;32.30;37.68;100313.88;10405762;28;97585;-81
2023/08/22 08:28:04;;;;;;;2.58;1.90;;;;;;;32.92;37.81;100308.41;10371101;28;96718;-81
2023/08/22 08:33:09;;;;;;;2.53;1.90;;;;;;;33.13;37.83;100308.31;10370917;28;96840;-81
2023/08/22 08:38:12;;;;;;;2.65;2.00;;;;;;;34.01;36.82;100304.53;10371244;28;96830;-81
2023/08/22 08:43:16;;;;;;;2.35;2.00;;;;;;;34.31;36.60;100290.22;10371387;28;96631;-81
2023/08/22 08:48:39;;;;;;;2.60;2.10;;;;;;;34.36;35.28;100293.16;10391582;22;97678;-81
2023/08/22 08:53:43;;;;;;;2.05;1.80;;;;;;;35.34;34.50;100283.81;10397939;28;97438;-81
2023/08/22 08:58:46;;;;;;;2.28;1.88;;;;;;;35.38;34.19;100288.63;10370325;28;96862;-81
2023/08/22 09:04:01;;;;;;;;;;;;;;;35.30;33.84;100272.47;10371289;28;96628;-81
2023/08/22 09:09:07;;;;;;;1.92;1.70;;;;;;;35.68;33.29;100278.75;10410255;28;96837;-82
2023/08/22 09:14:10;;;;;;;2.22;1.80;;;;;;;35.26;33.46;100267.63;10402650;28;96687;-81
2023/08/22 09:19:18;;;;;;;3.30;2.05;;;;;;;35.58;33.00;100266.63;10370119;28;97082;-81
2023/08/22 09:24:26;;;;;;;1.92;1.70;;;;;;;35.14;32.27;100258.44;10369902;28;96625;-81
2023/08/22 09:29:31;;;;;;;2.55;1.58;;;;;;;34.76;32.08;100255.66;10370595;28;96591;-81
2023/08/22 09:34:39;;;;;;;2.10;1.52;;;;;;;35.27;32.30;100244.69;10373160;28;96765;-81
2023/08/22 09:39:57;;;;;;;2.25;1.55;;;;;;;35.62;32.12;100255.00;10376779;28;97106;-81
2023/08/22 09:45:00;;;;;;;1.60;1.50;;;;;;;35.20;32.38;100247.44;10410203;28;97402;-81
2023/08/22 09:50:07;;;;;;;1.95;1.50;;;;;;;35.25;31.62;100238.59;10393004;28;97803;-82
2023/08/22 09:55:12;;;;;;;1.40;1.30;;;;;;;35.49;31.34;100240.56;10376135;28;96881;-81
2023/08/22 10:00:15;;;;;;;1.38;1.27;;;;;;;35.57;30.97;100238.41;10375933;28;97451;-81
2023/08/22 10:05:20;;;;;;;1.67;1.40;;;;;;;35.33;31.26;100235.59;10375898;28;97524;-81
2023/08/22 10:10:24;;;;;;;1.80;1.33;;;;;;;35.54;31.12;100230.63;10375900;28;97384;-82
2023/08/22 10:15:29;;;;;;;1.90;1.50;;;;;;;35.98;30.33;100220.59;10375082;28;97223;-82
2023/08/22 10:20:38;;;;;;;1.70;1.30;;;;;;;36.12;29.65;100227.63;10375779;28;96629;-81
2023/08/22 10:25:48;;;;;;;1.77;1.30;;;;;;;36.24;29.35;100217.59;10374181;28;96795;-81
2023/08/22 10:31:04;;;;;;;1.45;1.35;;;;;;;36.28;29.68;100227.88;10374915;28;97101;-82
2023/08/22 10:36:19;;;;;;;1.60;1.42;;;;;;;36.55;29.37;100215.56;10373291;28;96742;-82
2023/08/22 10:41:23;;;;;;;1.52;1.20;;;;;;;36.72;28.49;100213.03;10371326;28;96750;-82
2023/08/22 10:46:58;;;;;;;1.63;1.30;;;;;;;37.03;28.04;100201.88;10373201;28;96836;-81
2023/08/22 10:52:05;;;;;;;1.38;1.20;;;;;;;37.45;28.01;100209.06;10374197;28;96908;-82
2023/08/22 10:57:16;;;;;;;1.98;1.50;;;;;;;37.37;28.35;100195.69;10373767;28;96695;-81
2023/08/22 11:02:20;;;;;;;1.70;1.40;;;;;;;37.40;27.80;100186.97;10373983;28;96721;-81
2023/08/22 11:07:26;;;;;;;1.58;1.40;;;;;;;37.64;27.77;100182.38;10373643;28;96648;-81
2023/08/22 11:12:29;;;;;;;1.75;1.40;;;;;;;37.57;27.33;100176.97;10385126;28;97249;-82
2023/08/22 11:17:37;;;;;;;2.90;1.25;;;;;;;38.15;27.41;100159.66;10393571;28;96836;-82
2023/08/22 11:22:42;;;;;;;2.55;1.58;;;;;;;38.27;26.58;100153.13;10414784;28;97765;-81
2023/08/22 11:27:47;;;;;;;1.45;1.35;;;;;;;38.61;27.10;100149.41;10408660;28;96649;-82
2023/08/22 11:32:50;;;;;;;1.63;1.30;;;;;;;38.37;26.68;100133.25;10372557;28;97191;-82
2023/08/22 11:37:55;;;;;;;1.40;1.25;;;;;;;38.30;26.55;100129.81;10372161;28;96818;-82
2023/08/22 11:42:59;;;;;;;1.70;1.23;;;;;;;38.43;26.35;100121.28;10372717;28;97737;-82
2023/08/22 11:48:02;;;;;;;1.35;1.20;;;;;;;38.87;26.56;100115.03;10371371;28;96598;-82
2023/08/22 11:53:12;;;;;;;1.60;1.20;;;;;;;38.90;25.58;100103.50;10372237;28;96857;-81
2023/08/22 11:58:16;;;;;;;1.52;1.20;;;;;;;39.08;26.29;100100.50;10371116;28;97821;-83
2023/08/22 12:03:20;;;;;;;1.70;1.10;;;;;;;39.31;25.96;100083.88;10372406;28;98103;-81
2023/08/22 12:08:43;;;;;;;1.40;1.30;;;;;;;39.29;25.75;100085.22;10372029;28;96836;-81
2023/08/22 12:13:46;;;;;;;1.60;1.25;;;;;;;39.15;25.76;100075.59;10371564;28;97021;-81
2023/08/22 12:18:49;;;;;;;1.40;1.30;;;;;;;39.07;26.22;100070.50;10369965;28;96705;-82
2023/08/22 12:23:54;;;;;;;1.42;1.20;;;;;;;39.17;25.38;100066.03;10371133;28;96556;-82
2023/08/22 12:28:57;;;;;;;2.15;1.65;;;;;;;39.23;25.23;100053.16;10370980;28;96710;-82
2023/08/22 12:34:00;;;;;;;1.70;1.20;;;;;;;39.80;25.43;100052.69;10371205;28;97775;-82
2023/08/22 12:39:06;;;;;;;1.50;1.30;;;;;;;39.66;24.96;100045.88;10370721;28;97586;-82
2023/08/22 12:44:09;;;;;;;1.10;1.05;;;;;;;39.79;25.32;100039.19;10370473;28;96764;-82
2023/08/22 12:49:12;;;;;;;1.33;1.15;;;;;;;39.61;25.05;100028.44;10370393;28;96711;-82
2023/08/22 12:54:17;;;;;;;2.13;1.27;;;;;;;39.92;24.74;100023.09;10370768;28;97625;-82
2023/08/22 12:59:20;;;;;;;1.48;1.33;;;;;;;39.95;24.08;100027.25;10370371;28;97787;-82
2023/08/22 13:04:23;;;;;;;1.30;1.20;;;;;;;40.38;24.33;100010.66;10369843;28;96593;-82
2023/08/22 13:09:28;;;;;;;1.77;1.40;;;;;;;40.19;24.21;100005.78;10372627;28;96757;-82
2023/08/22 13:14:31;;;;;;;1.95;1.80;;;;;;;40.48;24.08;100010.00;10376977;28;97085;-83
2023/08/22 13:19:52;;;;;;;1.90;1.67;;;;;;;40.64;24.18;100003.53;10375749;28;96927;-83
2023/08/22 13:24:57;;;;;;;1.67;1.52;;;;;;;40.87;23.68;99998.50;10376998;28;97808;-83
2023/08/22 13:30:00;;;;;;;1.40;1.20;;;;;;;41.22;23.20;99999.88;10376183;28;97993;-83
2023/08/22 13:35:04;;;;;;;1.80;1.35;;;;;;;41.22;22.74;99991.59;10376629;28;97007;-83
2023/08/22 13:40:09;;;;;;;1.10;1.00;;;;;;;41.40;22.81;99993.97;10376131;28;96876;-82
2023/08/22 13:45:12;;;;;;;6.60;4.78;;;;;;;41.58;22.09;99987.97;10376814;28;97328;-83
2023/08/22 13:50:16;;;;;;;4.05;2.10;;;;;;;41.86;21.69;99984.81;10333677;28;97734;-83
2023/08/22 13:55:20;;;;;;;3.75;2.90;;;;;;;42.03;21.32;99975.19;10334641;28;97399;-82
2023/08/22 14:00:25;;;;;;;2.92;1.80;;;;;;;42.03;20.89;99969.66;10333230;28;96581;-82
2023/08/22 14:05:28;;;;;;;10.40;5.45;;;;;;;42.19;21.23;99953.13;10361458;28;96807;-83
2023/08/22 14:10:33;;;;;;;1.98;1.77;;;;;;;42.32;20.46;99947.91;10375436;28;97152;-82
2023/08/22 14:15:36;;;;;;;1.67;1.38;;;;;;;42.30;21.64;99941.84;10375154;28;96954;-82
2023/08/22 14:20:42;;;;;;;1.45;1.10;;;;;;;42.28;21.22;99935.75;10374169;28;97281;-82
2023/08/22 14:26:05;;;;;;;1.90;1.50;;;;;;;42.18;21.22;99934.88;10368319;28;96855;-82
2023/08/22 14:31:08;;;;;;;1.67;1.58;;;;;;;42.22;22.17;99919.38;10375546;28;96963;-82
2023/08/22 14:36:12;;;;;;;1.77;1.40;;;;;;;42.19;21.28;99917.16;10375124;28;96957;-81
2023/08/22 14:41:16;;;;;;;1.92;1.70;;;;;;;42.11;21.45;99918.53;10333612;28;97495;-82
2023/08/22 14:46:20;;;;;;;3.08;2.40;;;;;;;41.63;22.42;99916.97;10332220;28;96706;-82
2023/08/22 14:51:23;;;;;;;3.08;2.60;;;;;;;41.50;23.26;99920.25;10331745;28;97052;-81
2023/08/22 14:56:28;;;;;;;3.45;2.47;;;;;;;41.34;23.52;99917.66;10359824;28;97618;-81
2023/08/22 15:01:31;;;;;;;3.05;2.30;;;;;;;41.25;23.60;99905.41;10373691;28;97008;-82
2023/08/22 15:06:34;;;;;;;2.50;1.90;;;;;;;41.12;22.53;99915.03;10373611;28;96732;-82
2023/08/22 15:11:39;;;;;;;2.25;2.00;;;;;;;41.01;22.18;99909.69;10373440;28;96764;-82
2023/08/22 15:16:42;;;;;;;3.63;2.00;;;;;;;41.10;21.60;99910.88;10373167;28;96739;-81
2023/08/22 15:21:45;;;;;;;1.60;1.40;;;;;;;41.21;21.60;99916.16;10373045;28;96564;-82
2023/08/22 15:26:50;;;;;;;3.03;1.70;;;;;;;41.00;21.02;99911.66;10373957;28;97018;-81
2023/08/22 15:31:54;;;;;;;1.83;1.60;;;;;;;41.07;21.30;99909.50;10371288;28;96758;-82
2023/08/22 15:36:57;;;;;;;2.22;1.30;;;;;;;40.78;20.63;99908.97;10372666;28;97629;-81
2023/08/22 15:42:01;;;;;;;1.60;1.38;;;;;;;41.06;21.24;99906.97;10371031;28;96872;-81
2023/08/22 15:47:05;;;;;;;3.60;1.40;;;;;;;41.05;21.04;99899.78;10371913;28;96997;-82
2023/08/22 15:52:08;;;;;;;1.40;1.30;;;;;;;41.30;20.50;99914.56;10372108;28;96927;-82
2023/08/22 15:57:13;;;;;;;1.95;1.40;;;;;;;41.15;20.52;99908.13;10371811;28;97226;-82
2023/08/22 16:02:17;;;;;;;1.33;1.17;;;;;;;40.63;21.17;99902.50;10371993;28;97366;-82
2023/08/22 16:07:20;;;;;;;2.08;1.33;;;;;;;40.54;21.08;99906.84;10401581;28;96857;-82
2023/08/22 16:12:25;;;;;;;1.73;1.45;;;;;;;40.55;21.02;99922.31;10413609;28;96887;-81
2023/08/22 16:17:28;;;;;;;2.13;1.30;;;;;;;40.55;21.19;99931.41;10413634;28;98102;-82
2023/08/22 16:22:32;;;;;;;2.03;1.50;;;;;;;40.41;20.92;99934.84;10376148;28;97088;-82
2023/08/22 16:27:37;;;;;;;2.17;1.27;;;;;;;40.11;21.21;99962.09;10371397;28;96581;-81
2023/08/22 16:32:40;;;;;;;3.47;1.50;;;;;;;39.48;24.59;99973.69;10369296;28;96643;-81
2023/08/22 16:37:44;;;;;;;3.83;1.48;;;;;;;38.02;30.00;99962.06;10370847;28;97164;-83
2023/08/22 16:42:49;;;;;;;3.08;1.52;;;;;;;37.20;32.41;99944.03;10373639;28;96543;-81
2023/08/22 16:47:52;;;;;;;2.53;1.60;;;;;;;37.19;31.06;99923.97;10377502;28;99681;-79
2023/08/22 16:52:56;;;;;;;6.97;2.17;;;;;;;36.89;35.31;99934.25;10377648;28;96566;-80
2023/08/22 16:58:01;;;;;;;2.70;1.73;;;;;;;36.55;36.86;99930.38;10377563;28;97320;-79
2023/08/22 17:03:05;;;;;;;2.45;1.80;;;;;;;36.28;36.08;99937.31;10377983;28;96634;-79
2023/08/22 17:08:12;;;;;;;2.83;1.85;;;;;;;36.27;36.49;99943.88;10378230;28;96624;-79
2023/08/22 17:13:16;;;;;;;2.88;1.52;;;;;;;36.31;36.63;99942.31;10377026;28;96792;-80
2023/08/22 17:18:20;;;;;;;5.35;2.40;;;;;;;35.04;41.64;99947.06;10377016;28;96646;-81
2023/08/22 17:23:23;;;;;;;3.50;2.10;;;;;;;34.61;42.24;99939.84;10376245;28;96935;-80
2023/08/22 17:28:28;;;;;;;4.45;1.83;;;;;;;34.71;41.96;99932.81;10376480;28;96630;-80
2023/08/22 17:33:35;;;;;;;2.47;1.80;;;;;;;34.73;40.89;99944.38;10376692;28;97197;-81
2023/08/22 17:38:40;;;;;;;4.35;1.98;;;;;;;35.00;40.42;99937.63;10376861;28;97616;-81
2023/08/22 17:43:45;;;;;;;5.05;2.60;;;;;;;35.15;39.72;99931.78;10376172;28;97665;-81
2023/08/22 17:48:49;;;;;;;2.72;1.92;;;;;;;35.22;39.47;99930.66;10375969;28;96598;-81
2023/08/22 17:53:53;;;;;;;2.58;2.13;;;;;;;35.16;39.49;99926.09;10375308;28;97379;-81
2023/08/22 17:58:57;;;;;;;3.85;1.90;;;;;;;35.21;39.55;99930.88;10376314;28;96962;-81
2023/08/22 18:04:01;;;;;;;3.53;2.15;;;;;;;35.29;40.45;99938.78;10375634;28;96795;-81
2023/08/22 18:09:04;;;;;;;2.60;2.15;;;;;;;35.44;41.08;99936.56;10375787;28;97729;-81
2023/08/22 18:14:10;;;;;;;3.50;2.15;;;;;;;35.23;41.08;99943.28;10374597;28;96733;-81
2023/08/22 18:19:14;;;;;;;3.08;1.98;;;;;;;35.00;41.06;99950.44;10374860;28;96793;-81
2023/08/22 18:24:19;;;;;;;2.75;1.77;;;;;;;34.97;41.78;99951.75;10375284;28;97808;-81
2023/08/22 18:29:23;;;;;;;3.38;2.15;;;;;;;34.88;41.71;99955.78;10375080;28;97346;-82
2023/08/22 18:34:28;;;;;;;3.60;2.00;;;;;;;34.53;41.75;99951.88;10374814;28;96834;-81
2023/08/22 18:39:32;;;;;;;2.85;1.88;;;;;;;34.56;41.02;99951.41;10374587;28;96657;-81
2023/08/22 18:44:36;;;;;;;3.50;2.10;;;;;;;34.39;42.25;99959.31;10373833;28;96693;-82
2023/08/22 18:49:40;;;;;;;3.33;2.25;;;;;;;34.17;42.18;99958.00;10375122;28;97353;-82
2023/08/22 18:54:43;;;;;;;4.15;2.20;;;;;;;34.06;42.19;99969.59;10373844;28;96784;-81
2023/08/22 18:59:48;;;;;;;2.65;1.88;;;;;;;33.93;41.94;99972.41;10373882;28;96684;-81
2023/08/22 19:04:51;;;;;;;4.50;1.98;;;;;;;33.84;42.06;99967.38;10372654;28;96717;-81
2023/08/22 19:09:55;;;;;;;2.92;2.20;;;;;;;33.59;42.90;99975.44;10373528;28;96687;-82
2023/08/22 19:15:01;;;;;;;3.00;2.38;;;;;;;33.41;43.97;99973.44;10373482;28;96810;-82
2023/08/22 19:20:05;;;;;;;3.03;1.90;;;;;;;33.48;43.08;99982.44;10373397;28;97595;-82
2023/08/22 19:25:09;;;;;;;2.60;2.00;;;;;;;33.21;43.97;99982.66;10373341;28;96596;-81
2023/08/22 19:30:16;;;;;;;4.75;1.92;;;;;;;33.09;43.85;99982.47;10372607;28;96998;-82
2023/08/22 19:35:20;;;;;;;4.18;2.20;;;;;;;33.09;43.86;99978.88;10372803;28;97636;-81
2023/08/22 19:40:23;;;;;;;3.08;2.33;;;;;;;33.06;44.04;99977.44;10373588;28;96678;-81
2023/08/22 19:45:30;;;;;;;4.60;2.10;;;;;;;32.74;44.17;99970.06;10369688;28;96696;-81
2023/08/22 19:50:33;;;;;;;2.65;2.17;;;;;;;32.72;44.35;99976.78;10371970;28;96751;-82
2023/08/22 19:55:38;;;;;;;3.42;2.17;;;;;;;32.45;45.49;99977.81;10371278;28;97619;-82
2023/08/22 20:00:46;;;;;;;4.57;2.47;;;;;;;32.21;45.53;99982.78;10372784;28;97947;-82
2023/08/22 20:05:49;;;;;;;5.80;2.40;;;;;;;32.20;44.98;99989.25;10372120;28;96659;-82
2023/08/22 20:10:53;;;;;;;3.65;2.10;;;;;;;31.84;45.26;99993.34;10371980;28;96685;-82
2023/08/22 20:15:57;;;;;;;3.53;2.30;;;;;;;31.56;46.34;100001.53;10370984;28;96786;-82
2023/08/22 20:21:01;;;;;;;3.10;2.22;;;;;;;31.48;46.09;100007.13;10371019;28;96695;-81
2023/08/22 20:26:04;;;;;;;5.45;2.80;;;;;;;31.52;46.09;100002.13;10371396;28;97903;-81
2023/08/22 20:31:09;;;;;;;5.00;3.72;;;;;;;31.46;46.17;100011.09;10371795;28;98417;-81
2023/08/22 20:36:14;;;;;;;8.10;5.32;;;;;;;31.34;46.19;100018.97;10370878;28;96687;-79
2023/08/22 20:41:17;;;;;;;5.22;3.90;;;;;;;31.21;46.21;100022.44;10371259;28;97754;-81
2023/08/22 20:46:22;;;;;;;5.15;2.85;;;;;;;31.40;44.73;100029.06;10403606;28;96861;-81
2023/08/22 20:51:25;;;;;;;5.40;2.50;;;;;;;31.57;44.20;100035.84;10401268;28;97094;-81
2023/08/22 20:56:28;;;;;;;3.63;2.28;;;;;;;31.21;44.65;100035.16;10370368;28;96912;-81
2023/08/22 21:01:33;;;;;;;5.82;2.38;;;;;;;31.03;45.68;100037.53;10370368;28;96896;-81
2023/08/22 21:06:36;;;;;;;3.80;2.17;;;;;;;30.67;46.41;100032.19;10370467;28;97129;-81
2023/08/22 21:11:39;;;;;;;;;;;;;;;30.76;46.69;100039.19;10370772;28;97410;-81
2023/08/22 21:16:44;;;;;;;4.27;2.30;;;;;;;31.10;45.31;100039.28;10376202;22;97230;-83
2023/08/22 21:21:47;;;;;;;3.13;2.03;;;;;;;31.00;45.38;100044.22;10410347;28;97783;-81
2023/08/22 21:26:50;;;;;;;;;;;;;;;30.78;45.62;100042.56;10389073;28;96625;-81
2023/08/22 21:31:55;;;;;;;3.73;2.27;;;;;;;30.50;46.13;100038.06;10375635;28;96768;-81
2023/08/22 21:36:58;;;;;;;2.60;2.08;;;;;;;30.36;46.67;100039.78;10375369;28;97195;-81
2023/08/22 21:42:02;;;;;;;;;;;;;;;30.62;46.17;100034.63;10378973;28;97691;-82
2023/08/22 21:47:07;;;;;;;2.97;2.17;;;;;;;30.71;45.63;100035.38;10379900;28;97310;-82
2023/08/22 21:52:11;;;;;;;7.22;3.38;;;;;;;30.64;45.45;100027.13;10376319;28;96542;-81
2023/08/22 21:57:14;;;;;;;4.82;2.60;;;;;;;30.70;45.51;100029.09;10376051;28;96909;-81
2023/08/22 22:02:19;;;;;;;;;;;;;;;30.59;46.57;100026.03;10376206;28;97269;-81
2023/08/22 22:07:23;;;;;;;3.55;2.33;;;;;;;30.50;45.94;100022.59;10376006;28;97466;-82
2023/08/22 22:12:26;;;;;;;4.13;2.10;;;;;;;30.63;45.47;100020.00;10376418;28;96717;-82
2023/08/22 22:17:32;;;;;;;5.35;2.40;;;;;;;30.19;46.86;100017.47;10378238;28;97277;-82
2023/08/22 22:22:36;;;;;;;3.40;2.08;;;;;;;30.19;46.87;100013.91;10417206;28;96701;-82
2023/08/22 22:27:39;;;;;;;2.92;2.35;;;;;;;30.39;45.82;100014.97;10415843;28;97535;-82
2023/08/22 22:32:44;;;;;;;;;;;;;;;30.52;45.80;100006.97;10412016;28;97028;-81
2023/08/22 22:37:47;;;;;;;2.58;2.10;;;;;;;29.98;46.85;100019.25;10374682;28;96660;-81
2023/08/22 22:42:51;;;;;;;3.42;1.92;;;;;;;29.75;47.55;100013.13;10374005;28;97589;-81
2023/08/22 22:47:56;;;;;;;3.83;2.35;;;;;;;29.61;47.59;100019.38;10374228;28;97004;-82
2023/08/22 22:52:59;;;;;;;3.88;2.20;;;;;;;29.52;47.67;100024.06;10374026;28;97396;-81
2023/08/22 22:58:02;;;;;;;4.10;2.38;;;;;;;29.82;46.40;100022.19;10374199;28;97784;-82
2023/08/22 23:03:07;;;;;;;;;;;;;;;29.90;46.96;100031.06;10374829;28;96797;-82
2023/08/22 23:08:10;;;;;;;3.80;2.30;;;;;;;29.87;45.87;100028.72;10373494;28;97165;-83
2023/08/22 23:13:14;;;;;;;4.72;2.10;;;;;;;29.73;46.67;100032.28;10373629;28;96759;-82
2023/08/22 23:18:18;;;;;;;3.03;2.10;;;;;;;29.58;47.26;100028.75;10371882;28;97582;-82
2023/08/22 23:23:22;;;;;;;3.42;2.45;;;;;;;29.55;47.81;100033.72;10373259;28;97781;-82
2023/08/22 23:28:25;;;;;;;3.28;2.45;;;;;;;29.44;48.48;100031.41;10373229;28;96711;-82
2023/08/22 23:33:30;;;;;;;3.00;2.30;;;;;;;29.57;48.21;100034.38;10373015;28;96757;-82